sim
Sign-in with your pilot id or email,
or register
Callsign
Passwort

Schedule Details

Flight Number: RYR5501 (1)
Departure: Milan Bergamo Il Caravaggio International Airport (LIME) at 11:45
Arrival: Hamburg Airport (EDDH) at 13:30
Route: Ryanair Passenger Schedule. Enter filed route here before submitting Pirep.

Weather Information
Getting current METAR information for LIME 241450Z VRB02KT CAVOK 05/03 Q0998 NOSIG
Getting current METAR information for EDDH 241450Z 23004KT 200V260 9999 -RA FEW011 BKN014 03/01 Q0997 TEMPO 4500 -RASN

Schedule Frequency

Route Map